Time;durP1;ratioP1;P1;durP2;ratioP2;P2;SDS_P1;SDS_P2;PMS_P1;PMS_P2;Temp;Humidity;BMP_temperature;BMP_pressure;BME280_temperature;BME280_humidity;BME280_pressure;Samples;Min_cycle;Max_cycle;Signal;HPM_P1;HPM_P2
2023/10/21 00:02:18;;;;;;;2.47;1.88;;;19.80;78.00;;;;;;4974694;28;20520;-26
2023/10/21 00:04:45;;;;;;;3.17;1.70;;;20.60;72.60;;;;;;4974571;28;20109;-27
2023/10/21 00:07:12;;;;;;;2.42;1.63;;;;;;;;;;4974481;28;20086;-27
2023/10/21 00:09:39;;;;;;;2.45;1.80;;;;;;;;;;4974663;28;20050;-27
2023/10/21 00:12:08;;;;;;;2.95;1.83;;;20.70;59.20;;;;;;4974376;28;20105;-26
2023/10/21 00:14:35;;;;;;;2.20;1.80;;;21.00;59.40;;;;;;4974280;28;20054;-26
2023/10/21 00:17:03;;;;;;;2.15;1.70;;;;;;;;;;4974035;28;20061;-26
2023/10/21 00:19:30;;;;;;;2.03;1.77;;;20.60;77.90;;;;;;4974494;28;20491;-27
2023/10/21 00:21:56;;;;;;;3.13;1.60;;;20.40;78.10;;;;;;4974325;28;20105;-26
2023/10/21 00:24:25;;;;;;;3.10;1.88;;;19.90;67.20;;;;;;4974256;28;20105;-26
2023/10/21 00:26:51;;;;;;;2.50;1.65;;;20.20;68.30;;;;;;4989013;28;20515;-26
2023/10/21 00:29:19;;;;;;;2.85;1.90;;;20.90;78.30;;;;;;4993637;28;20495;-26
2023/10/21 00:31:46;;;;;;;2.67;1.92;;;20.20;77.20;;;;;;4993486;28;20406;-29
2023/10/21 00:34:13;;;;;;;2.55;1.90;;;;;;;;;;4993568;28;20511;-28
2023/10/21 00:36:40;;;;;;;2.08;1.80;;;20.60;77.40;;;;;;4986157;28;20042;-29
2023/10/21 00:39:10;;;;;;;2.17;1.85;;;;;;;;;;4973734;28;20055;-29
2023/10/21 00:41:37;;;;;;;2.60;2.00;;;20.40;77.20;;;;;;4974178;28;20054;-29
2023/10/21 00:44:05;;;;;;;2.50;1.80;;;20.60;59.10;;;;;;4973878;28;20444;-29
2023/10/21 00:46:33;;;;;;;2.85;2.00;;;20.40;62.50;;;;;;4973788;28;20086;-29
2023/10/21 00:49:00;;;;;;;2.97;2.05;;;20.10;62.90;;;;;;4973890;28;20055;-29
2023/10/21 00:51:27;;;;;;;2.63;2.15;;;;;;;;;;4973633;28;20488;-30
2023/10/21 00:53:54;;;;;;;2.33;1.95;;;;;;;;;;4973587;28;20140;-27
2023/10/21 00:56:21;;;;;;;3.05;2.22;;;20.20;77.90;;;;;;4973588;28;20077;-30
2023/10/21 00:58:48;;;;;;;1.92;1.70;;;;;;;;;;4973663;28;20732;-29
2023/10/21 01:01:15;;;;;;;2.92;1.80;;;20.50;77.20;;;;;;4973541;28;20047;-29
2023/10/21 01:03:43;;;;;;;4.72;2.05;;;21.70;78.00;;;;;;4973515;28;20137;-29
2023/10/21 01:06:10;;;;;;;2.50;1.80;;;20.80;78.30;;;;;;4973226;28;20050;-29
2023/10/21 01:08:41;;;;;;;2.72;2.00;;;20.90;63.70;;;;;;4973577;28;20496;-29
2023/10/21 01:11:08;;;;;;;3.35;1.83;;;;;;;;;;4973431;28;20121;-29
2023/10/21 01:13:35;;;;;;;2.97;2.30;;;21.10;77.50;;;;;;4973271;28;20054;-29
2023/10/21 01:16:02;;;;;;;3.03;1.90;;;20.50;77.30;;;;;;4973200;28;20047;-29
2023/10/21 01:18:33;;;;;;;2.83;2.00;;;;;;;;;;4973245;28;20144;-29
2023/10/21 01:21:02;;;;;;;2.65;2.08;;;21.10;64.80;;;;;;4973216;28;20102;-29
2023/10/21 01:23:31;;;;;;;2.40;1.95;;;20.30;70.00;;;;;;4973475;28;20082;-29
2023/10/21 01:25:57;;;;;;;2.25;1.95;;;21.70;78.20;;;;;;4980752;28;20042;-29
2023/10/21 01:28:24;;;;;;;2.92;2.20;;;21.10;77.60;;;;;;4992555;28;20054;-29
2023/10/21 01:30:51;;;;;;;2.60;1.75;;;;;;;;;;4992701;28;20042;-28
2023/10/21 01:33:18;;;;;;;1.95;1.73;;;20.50;77.30;;;;;;4992431;28;20455;-29
2023/10/21 01:35:45;;;;;;;2.75;2.10;;;;;;;;;;4992304;28;20635;-29
2023/10/21 01:38:12;;;;;;;3.25;2.30;;;;;;;;;;4973138;28;20050;-29
2023/10/21 01:40:40;;;;;;;2.47;2.15;;;20.70;59.20;;;;;;4972934;28;20047;-29
2023/10/21 01:43:07;;;;;;;2.45;2.03;;;;;;;;;;4972962;28;20137;-29
2023/10/21 01:45:35;;;;;;;3.05;1.98;;;20.40;77.50;;;;;;4972912;28;20224;-29
2023/10/21 01:48:02;;;;;;;2.25;2.05;;;20.60;77.70;;;;;;4972697;28;20050;-29
2023/10/21 01:50:30;;;;;;;2.70;2.17;;;;;;;;;;4973197;28;20043;-28
2023/10/21 01:52:56;;;;;;;2.65;2.00;;;20.10;77.90;;;;;;4972971;28;20102;-29
2023/10/21 01:55:23;;;;;;;2.70;1.90;;;21.00;77.90;;;;;;4973109;28;20093;-29
2023/10/21 01:57:51;;;;;;;2.92;2.00;;;20.10;66.50;;;;;;4972734;28;20086;-29
2023/10/21 02:00:20;;;;;;;2.10;1.85;;;20.70;69.50;;;;;;4972547;28;20082;-29
2023/10/21 02:02:49;;;;;;;2.20;1.95;;;20.70;78.10;;;;;;4973021;28;20059;-29
2023/10/21 02:05:16;;;;;;;2.30;2.10;;;;;;;;;;4972944;28;20051;-28
2023/10/21 02:07:43;;;;;;;2.50;2.00;;;20.30;77.40;;;;;;4972865;28;20051;-29
2023/10/21 02:10:10;;;;;;;4.15;2.20;;;;;;;;;;4972424;28;20105;-27
2023/10/21 02:12:37;;;;;;;2.75;1.88;;;20.80;77.30;;;;;;4972688;28;20047;-29
2023/10/21 02:15:10;;;;;;;3.00;2.30;;;21.50;59.60;;;;;;4972610;28;20050;-29
2023/10/21 02:17:39;;;;;;;2.28;2.00;;;;;;;;;;4974325;28;20074;-28
2023/10/21 02:20:07;;;;;;;2.33;1.98;;;20.70;77.20;;;;;;4976647;28;20053;-29
2023/10/21 02:22:34;;;;;;;3.13;2.10;;;20.70;77.30;;;;;;4976475;28;20381;-29
2023/10/21 02:25:01;;;;;;;2.60;2.17;;;21.20;77.90;;;;;;4976534;28;20447;-29
2023/10/21 02:27:28;;;;;;;2.85;2.10;;;20.80;78.10;;;;;;4995748;28;20078;-29
2023/10/21 02:29:55;;;;;;;2.60;2.20;;;20.80;60.90;;;;;;4995837;28;20058;-29
2023/10/21 02:32:23;;;;;;;2.30;2.00;;;19.80;76.80;;;;;;4995905;28;20050;-29
2023/10/21 02:34:49;;;;;;;2.88;2.08;;;20.50;77.10;;;;;;4995760;28;20046;-29
2023/10/21 02:37:17;;;;;;;2.75;2.13;;;;;;;;;;4983335;28;20125;-29
2023/10/21 02:39:44;;;;;;;3.25;2.05;;;21.80;77.90;;;;;;4976234;28;20500;-29
2023/10/21 02:42:11;;;;;;;3.67;2.00;;;20.60;77.50;;;;;;4976022;28;20047;-29
2023/10/21 02:44:39;;;;;;;2.53;2.00;;;21.40;77.60;;;;;;4975809;28;20582;-29
2023/10/21 02:47:06;;;;;;;2.17;1.90;;;20.50;73.00;;;;;;4975867;28;20571;-29
2023/10/21 02:49:34;;;;;;;2.80;2.30;;;21.80;59.80;;;;;;4976250;28;20086;-29
2023/10/21 02:52:01;;;;;;;2.92;2.13;;;20.30;77.00;;;;;;4975959;28;20141;-29
2023/10/21 02:54:28;;;;;;;2.55;2.13;;;;;;;;;;4975911;28;20062;-29
2023/10/21 02:56:55;;;;;;;2.40;2.08;;;;;;;;;;4975717;28;20105;-29
2023/10/21 02:59:22;;;;;;;2.58;2.10;;;20.80;62.80;;;;;;4975863;28;20078;-29
2023/10/21 03:01:48;;;;;;;2.80;2.10;;;20.70;77.20;;;;;;4975697;28;20562;-29
2023/10/21 03:04:15;;;;;;;2.47;2.10;;;22.00;77.80;;;;;;4975736;28;20057;-29
2023/10/21 03:06:43;;;;;;;2.42;2.05;;;20.00;66.30;;;;;;4975443;28;20074;-29
2023/10/21 03:09:10;;;;;;;2.28;2.00;;;20.60;67.40;;;;;;4975629;28;20133;-29
2023/10/21 03:11:37;;;;;;;2.67;2.10;;;;;;;;;;4975887;28;20144;-29
2023/10/21 03:14:04;;;;;;;2.33;1.98;;;;;;;;;;4975237;28;20050;-27
2023/10/21 03:16:31;;;;;;;2.45;2.08;;;20.30;77.50;;;;;;4975591;28;20074;-26
2023/10/21 03:18:58;;;;;;;1.95;1.77;;;;;;;;;;4975657;28;20086;-26
2023/10/21 03:21:25;;;;;;;2.58;2.20;;;19.70;76.90;;;;;;4975268;28;20136;-26
2023/10/21 03:23:53;;;;;;;2.55;2.10;;;20.60;77.30;;;;;;4975238;28;20093;-26
2023/10/21 03:26:20;;;;;;;2.40;2.10;;;20.90;77.90;;;;;;4986172;28;20078;-26
2023/10/21 03:28:47;;;;;;;2.33;2.10;;;;;;;;;;4993726;28;20084;-27
2023/10/21 03:31:14;;;;;;;2.75;2.05;;;;;;;;;;4994775;28;20058;-26
2023/10/21 03:33:41;;;;;;;2.40;2.20;;;;;;;;;;4994539;28;20053;-27
2023/10/21 03:36:08;;;;;;;2.38;2.00;;;20.50;76.30;;;;;;4991466;28;20148;-26
2023/10/21 03:38:35;;;;;;;2.30;1.90;;;;;;;;;;4975518;28;20472;-27
2023/10/21 03:41:05;;;;;;;2.33;2.00;;;20.70;59.20;;;;;;4974997;28;20141;-29
2023/10/21 03:43:31;;;;;;;2.70;2.30;;;21.90;78.40;;;;;;4974973;28;20579;-26
2023/10/21 03:46:02;;;;;;;2.22;1.98;;;20.90;77.50;;;;;;4974759;28;20121;-26
2023/10/21 03:48:29;;;;;;;2.55;2.00;;;20.30;77.10;;;;;;4975115;28;20133;-26
2023/10/21 03:51:03;;;;;;;1.95;1.70;;;20.90;70.80;;;;;;4974846;28;20129;-26
2023/10/21 03:53:30;;;;;;;2.20;1.90;;;20.80;77.40;;;;;;4974963;28;20121;-26
2023/10/21 03:55:57;;;;;;;2.45;1.98;;;;;;;;;;4974722;28;20109;-26
2023/10/21 03:58:25;;;;;;;2.58;1.90;;;20.60;68.30;;;;;;4974758;28;20583;-26
2023/10/21 04:00:52;;;;;;;3.30;2.15;;;20.80;77.60;;;;;;4974585;28;20053;-26
2023/10/21 04:03:19;;;;;;;2.15;1.95;;;19.70;74.30;;;;;;4974195;28;20097;-26
2023/10/21 04:05:46;;;;;;;2.10;1.90;;;21.30;62.80;;;;;;4974471;28;20126;-27
2023/10/21 04:08:12;;;;;;;3.28;2.22;;;20.20;77.80;;;;;;4974263;28;20085;-26
2023/10/21 04:10:39;;;;;;;2.22;2.00;;;21.50;78.60;;;;;;4971977;28;20133;-26
2023/10/21 04:13:06;;;;;;;2.05;1.85;;;20.90;65.20;;;;;;4974005;28;20046;-26
2023/10/21 04:15:34;;;;;;;2.22;1.83;;;20.60;77.70;;;;;;4974280;28;20051;-26
2023/10/21 04:18:01;;;;;;;3.90;1.98;;;20.30;77.40;;;;;;4971600;28;20074;-26
2023/10/21 04:20:28;;;;;;;3.08;1.90;;;;;;;;;;4972863;28;20050;-29
2023/10/21 04:22:55;;;;;;;2.17;1.95;;;22.00;78.10;;;;;;4973485;28;20039;-26
2023/10/21 04:25:22;;;;;;;2.22;1.77;;;;;;;;;;4975878;28;20042;-29
2023/10/21 04:27:49;;;;;;;1.88;1.67;;;20.40;77.30;;;;;;4975406;28;20051;-26
2023/10/21 04:30:16;;;;;;;2.53;1.80;;;20.70;77.40;;;;;;4973854;28;20607;-26
2023/10/21 04:32:44;;;;;;;2.58;1.90;;;20.50;69.70;;;;;;4973653;28;20057;-26
2023/10/21 04:35:11;;;;;;;2.38;1.83;;;;;;;;;;4973882;28;20075;-26
2023/10/21 04:37:38;;;;;;;2.20;1.90;;;21.70;78.10;;;;;;4973395;28;20459;-26
2023/10/21 04:40:08;;;;;;;3.08;2.00;;;20.80;60.90;;;;;;4973430;28;20155;-27
2023/10/21 04:42:35;;;;;;;2.00;1.80;;;;;;;;;;4973420;28;20130;-29
2023/10/21 04:45:02;;;;;;;3.28;1.95;;;20.60;77.70;;;;;;4973951;28;20118;-26
2023/10/21 04:47:29;;;;;;;2.63;1.70;;;;;;;;;;4973434;28;20047;-27
2023/10/21 04:49:57;;;;;;;1.80;1.65;;;19.90;77.00;;;;;;4973583;28;20460;-26
2023/10/21 04:52:24;;;;;;;2.13;1.70;;;20.30;77.10;;;;;;4974128;28;20080;-26
2023/10/21 04:54:51;;;;;;;1.98;1.60;;;;;;;;;;4973890;28;20113;-29
2023/10/21 04:57:18;;;;;;;1.90;1.67;;;20.80;77.80;;;;;;4973614;28;20090;-26
2023/10/21 04:59:45;;;;;;;1.83;1.58;;;20.50;77.50;;;;;;4973739;28;20059;-26
2023/10/21 05:02:12;;;;;;;2.25;1.60;;;21.00;77.90;;;;;;4973942;28;20046;-26
2023/10/21 05:04:39;;;;;;;2.10;1.70;;;22.00;78.20;;;;;;4973529;28;20105;-26
2023/10/21 05:07:08;;;;;;;1.90;1.40;;;20.50;77.70;;;;;;4972977;28;20075;-26
2023/10/21 05:09:35;;;;;;;1.70;1.60;;;20.80;77.40;;;;;;4973281;28;20082;-26
2023/10/21 05:12:02;;;;;;;1.90;1.67;;;;;;;;;;4973457;28;20079;-28
2023/10/21 05:14:29;;;;;;;2.53;1.90;;;;;;;;;;4971263;28;20113;-26
2023/10/21 05:16:56;;;;;;;1.67;1.52;;;20.50;64.20;;;;;;4972596;28;20420;-27
2023/10/21 05:19:23;;;;;;;2.10;1.90;;;21.00;78.00;;;;;;4973032;28;20514;-26
2023/10/21 05:21:50;;;;;;;2.30;1.65;;;20.90;73.50;;;;;;4952712;28;20467;-26
2023/10/21 05:24:18;;;;;;;1.52;1.42;;;18.40;58.20;;;;;;4973099;28;20097;-26
2023/10/21 05:26:45;;;;;;;2.30;1.50;;;20.80;77.90;;;;;;4974813;28;20133;-26
2023/10/21 05:29:12;;;;;;;2.03;1.80;;;;;;;;;;4973227;28;20046;-29
2023/10/21 05:31:39;;;;;;;2.55;1.73;;;21.10;77.70;;;;;;4972490;28;20046;-26
2023/10/21 05:34:06;;;;;;;2.20;1.63;;;;;;;;;;4972619;28;20102;-28
2023/10/21 05:36:33;;;;;;;3.63;1.50;;;20.60;77.10;;;;;;4972176;28;20562;-25
2023/10/21 05:39:01;;;;;;;2.05;1.65;;;;;;;;;;4972715;28;20061;-29
2023/10/21 05:41:29;;;;;;;1.85;1.60;;;19.50;77.50;;;;;;4972261;28;20495;-26
2023/10/21 05:43:56;;;;;;;2.58;1.50;;;20.50;77.80;;;;;;4972278;28;21581;-26
2023/10/21 05:46:23;;;;;;;1.70;1.50;;;20.60;69.10;;;;;;4972420;28;20461;-26
2023/10/21 05:48:49;;;;;;;1.88;1.67;;;19.90;77.20;;;;;;4973033;28;20047;-26
2023/10/21 05:51:16;;;;;;;2.40;1.80;;;20.40;77.40;;;;;;4972814;28;20046;-26
2023/10/21 05:53:43;;;;;;;1.70;1.42;;;20.20;71.70;;;;;;4988149;28;20101;-26
2023/10/21 05:56:12;;;;;;;1.90;1.60;;;20.20;77.40;;;;;;4991872;28;20078;-26
2023/10/21 05:58:41;;;;;;;3.67;1.65;;;20.50;59.70;;;;;;4992503;28;20093;-29
2023/10/21 06:01:10;;;;;;;1.90;1.60;;;;;;;;;;4992360;28;20078;-28
2023/10/21 06:03:39;;;;;;;1.63;1.50;;;;;;;;;;4992252;28;20077;-28
2023/10/21 06:06:06;;;;;;;2.05;1.45;;;19.90;69.20;;;;;;4992042;28;20062;-26
2023/10/21 06:08:33;;;;;;;1.65;1.50;;;20.50;77.90;;;;;;4992363;28;20112;-26
2023/10/21 06:11:00;;;;;;;2.55;1.80;;;20.50;74.20;;;;;;4992192;28;20061;-26
2023/10/21 06:13:26;;;;;;;1.70;1.50;;;19.60;77.60;;;;;;4992097;28;20097;-26
2023/10/21 06:15:54;;;;;;;1.75;1.40;;;20.50;59.70;;;;;;4992064;28;20057;-31
2023/10/21 06:18:22;;;;;;;1.88;1.63;;;;;;;;;;4992168;28;20495;-29
2023/10/21 06:20:49;;;;;;;2.40;1.70;;;20.80;71.10;;;;;;4977272;28;20079;-26
2023/10/21 06:23:16;;;;;;;2.08;1.60;;;20.70;68.10;;;;;;4972139;28;20101;-26
2023/10/21 06:25:43;;;;;;;1.70;1.50;;;21.20;77.10;;;;;;4978778;28;20062;-26
2023/10/21 06:28:11;;;;;;;1.92;1.60;;;;;;;;;;4991799;28;20046;-29
2023/10/21 06:30:39;;;;;;;1.73;1.60;;;;;;;;;;4992180;28;20065;-29
2023/10/21 06:33:06;;;;;;;2.30;1.60;;;20.60;59.70;;;;;;4992146;28;20043;-27
2023/10/21 06:35:33;;;;;;;1.77;1.50;;;20.50;70.90;;;;;;4991998;28;20081;-26
2023/10/21 06:38:00;;;;;;;2.30;1.60;;;;;;;;;;4973906;28;20102;-29
2023/10/21 06:40:27;;;;;;;1.63;1.50;;;20.80;78.00;;;;;;4972195;28;20133;-26
2023/10/21 06:42:55;;;;;;;2.25;1.42;;;20.50;77.60;;;;;;4972322;28;20047;-26
2023/10/21 06:45:23;;;;;;;1.58;1.42;;;;;;;;;;4972568;28;20047;-28
2023/10/21 06:47:48;;;;;;;1.60;1.40;;;20.40;77.60;;;;;;4971994;28;20047;-27
2023/10/21 06:50:17;;;;;;;2.05;1.50;;;20.70;78.00;;;;;;4972127;28;20053;-26
2023/10/21 06:52:44;;;;;;;2.05;1.50;;;20.50;78.00;;;;;;4972104;28;20047;-26
2023/10/21 06:55:11;;;;;;;1.83;1.30;;;20.60;59.50;;;;;;4973395;28;20057;-27
2023/10/21 06:57:38;;;;;;;1.45;1.30;;;20.90;71.40;;;;;;4972240;28;20129;-27
2023/10/21 07:00:05;;;;;;;1.60;1.35;;;20.70;59.60;;;;;;4972168;28;20086;-28
2023/10/21 07:02:32;;;;;;;1.60;1.40;;;19.80;77.20;;;;;;4972106;28;20047;-27
2023/10/21 07:04:59;;;;;;;1.60;1.40;;;20.90;64.80;;;;;;4975780;28;20051;-27
2023/10/21 07:07:27;;;;;;;2.58;1.50;;;19.60;77.20;;;;;;4975400;28;20573;-27
2023/10/21 07:09:54;;;;;;;2.22;1.75;;;;;;;;;;4105610;28;10001147;-28
2023/10/21 07:12:21;;;;;;;2.30;1.38;;;;;;;;;;4974075;28;20057;-29
2023/10/21 07:14:49;;;;;;;1.70;1.42;;;20.50;77.50;;;;;;4974117;28;20078;-26
2023/10/21 07:17:17;;;;;;;1.77;1.45;;;;;;;;;;4974098;28;20047;-28
2023/10/21 07:19:43;;;;;;;1.65;1.48;;;20.70;64.70;;;;;;4987276;28;20068;-27
2023/10/21 07:22:10;;;;;;;2.00;1.67;;;;;;;;;;4992623;28;20054;-28
2023/10/21 07:24:39;;;;;;;2.45;1.90;;;20.70;59.40;;;;;;4993449;28;20491;-28
2023/10/21 07:27:06;;;;;;;2.10;1.60;;;20.70;59.40;;;;;;4976246;28;20097;-27
2023/10/21 07:29:33;;;;;;;3.42;1.85;;;;;;;;;;4973072;28;20062;-27
2023/10/21 07:32:00;;;;;;;2.30;1.73;;;;;;;;;;4973881;28;20078;-28
2023/10/21 07:34:27;;;;;;;1.90;1.60;;;20.50;77.90;;;;;;4973766;28;20055;-27
2023/10/21 07:36:53;;;;;;;2.53;1.75;;;20.70;77.70;;;;;;4973190;28;20662;-27
2023/10/21 07:39:20;;;;;;;2.35;1.80;;;20.60;59.40;;;;;;4973291;28;20110;-27
2023/10/21 07:41:48;;;;;;;2.33;1.73;;;20.50;62.60;;;;;;4973804;28;20051;-27
2023/10/21 07:44:15;;;;;;;2.47;1.80;;;;;;;;;;4973572;28;20129;-27
2023/10/21 07:46:42;;;;;;;2.55;1.90;;;;;;;;;;4973273;28;20121;-28
2023/10/21 07:49:10;;;;;;;2.50;1.73;;;;;;;;;;4973450;28;20500;-28
2023/10/21 07:51:37;;;;;;;2.67;2.03;;;20.60;77.60;;;;;;4973501;28;20491;-27
2023/10/21 07:54:04;;;;;;;2.08;1.77;;;21.10;60.00;;;;;;4973346;28;20511;-27
2023/10/21 07:56:31;;;;;;;2.03;1.83;;;20.80;77.60;;;;;;4973123;28;20098;-27
2023/10/21 07:58:59;;;;;;;4.75;2.13;;;20.70;78.10;;;;;;4973609;28;20050;-27
2023/10/21 08:01:26;;;;;;;2.33;1.95;;;;;;;;;;4973519;28;20109;-28
2023/10/21 08:03:53;;;;;;;2.03;1.80;;;20.30;71.40;;;;;;4969969;28;20047;-27
2023/10/21 08:06:20;;;;;;;2.25;1.80;;;20.70;77.70;;;;;;4969745;28;20130;-27
2023/10/21 08:08:47;;;;;;;2.47;1.92;;;;;;;;;;4972662;28;20051;-28
2023/10/21 08:11:13;;;;;;;2.03;1.83;;;19.80;77.60;;;;;;4970100;28;20508;-27
2023/10/21 08:13:40;;;;;;;2.03;1.83;;;19.80;77.60;;;;;;4972470;28;20491;-29
2023/10/21 08:16:08;;;;;;;2.30;1.80;;;20.40;62.90;;;;;;4971886;28;20519;-30
2023/10/21 08:18:35;;;;;;;2.00;1.60;;;19.60;67.80;;;;;;4972375;28;20106;-29
2023/10/21 08:21:02;;;;;;;2.83;1.90;;;20.20;77.50;;;;;;4972374;28;20542;-29
2023/10/21 08:23:29;;;;;;;2.25;1.83;;;;;;;;;;4969047;28;20467;-29
2023/10/21 08:25:57;;;;;;;2.20;1.90;;;;;;;;;;4974727;28;20047;-30
2023/10/21 08:28:24;;;;;;;2.30;1.80;;;19.90;77.50;;;;;;4969917;28;20051;-30
2023/10/21 08:30:51;;;;;;;3.40;1.85;;;21.70;78.60;;;;;;4972331;28;20326;-30
2023/10/21 08:33:19;;;;;;;2.00;1.77;;;20.50;59.80;;;;;;4972158;28;20202;-29
2023/10/21 08:35:46;;;;;;;2.30;1.75;;;21.30;72.50;;;;;;4971485;28;20109;-30
2023/10/21 08:38:13;;;;;;;2.47;1.90;;;20.40;77.80;;;;;;4971293;28;20167;-26
2023/10/21 08:40:41;;;;;;;2.50;2.10;;;;;;;;;;4972337;28;20073;-27
2023/10/21 08:43:08;;;;;;;2.10;1.70;;;20.50;59.90;;;;;;4971876;28;20043;-28
2023/10/21 08:45:35;;;;;;;2.42;1.83;;;19.50;77.30;;;;;;4972417;28;20125;-26
2023/10/21 08:48:03;;;;;;;3.55;2.05;;;20.40;59.90;;;;;;4971395;28;20074;-29
2023/10/21 08:50:31;;;;;;;2.10;1.80;;;20.50;60.00;;;;;;4969844;28;20527;-29
2023/10/21 08:52:58;;;;;;;2.20;1.80;;;;;;;;;;4971278;28;20047;-27
2023/10/21 08:55:27;;;;;;;2.28;1.70;;;;;;;;;;4972453;28;20432;-27
2023/10/21 08:57:54;;;;;;;3.05;1.98;;;;;;;;;;4971870;28;20530;-29
2023/10/21 09:00:21;;;;;;;2.05;1.67;;;21.20;78.60;;;;;;4972145;28;20129;-27
2023/10/21 09:02:48;;;;;;;2.00;1.58;;;20.10;78.30;;;;;;4969163;28;20062;-30
2023/10/21 09:05:15;;;;;;;2.42;1.63;;;20.00;60.00;;;;;;4117049;28;10000569;-29
2023/10/21 09:07:47;;;;;;;1.83;1.63;;;20.40;60.00;;;;;;4970936;28;20407;-29
2023/10/21 09:10:15;;;;;;;2.72;1.80;;;20.30;65.40;;;;;;4971932;28;20468;-30
2023/10/21 09:12:42;;;;;;;4.28;1.63;;;20.30;78.60;;;;;;4971667;28;20141;-29
2023/10/21 09:15:09;;;;;;;1.70;1.60;;;20.40;60.10;;;;;;4971117;28;20145;-28
2023/10/21 09:17:36;;;;;;;6.57;1.80;;;20.40;60.20;;;;;;4970924;28;20085;-30
2023/10/21 09:20:07;;;;;;;4.30;1.98;;;20.40;60.20;;;;;;4971282;28;20109;-30
2023/10/21 09:22:35;;;;;;;2.30;1.70;;;19.50;77.80;;;;;;4971180;28;20125;-30
2023/10/21 09:25:19;;;;;;;1.98;1.70;;;20.40;60.30;;;;;;4971492;28;20074;-27
2023/10/21 09:27:46;;;;;;;1.77;1.60;;;;;;;;;;4967867;28;20789;-28
2023/10/21 09:30:16;;;;;;;3.42;1.70;;;20.40;78.70;;;;;;4970943;28;20074;-26
2023/10/21 09:32:44;;;;;;;1.73;1.52;;;;;;;;;;4970336;28;20094;-27
2023/10/21 09:35:18;;;;;;;1.90;1.70;;;20.40;60.30;;;;;;4978600;28;20081;-28
2023/10/21 09:37:46;;;;;;;1.70;1.43;;;;;;;;;;4974524;28;20137;-26
2023/10/21 09:40:13;;;;;;;1.73;1.60;;;;;;;;;;4970322;28;20361;-26
2023/10/21 09:42:42;;;;;;;2.08;1.60;;;20.20;78.80;;;;;;4971060;28;20054;-26
2023/10/21 09:45:10;;;;;;;2.58;1.50;;;19.90;63.80;;;;;;4971190;28;20065;-27
2023/10/21 09:47:38;;;;;;;2.55;1.63;;;20.40;60.40;;;;;;4970686;28;20045;-28
2023/10/21 09:50:09;;;;;;;3.17;1.60;;;20.40;60.40;;;;;;4970744;28;20078;-29
2023/10/21 09:52:39;;;;;;;1.92;1.70;;;20.30;60.30;;;;;;4969629;28;20104;-27
2023/10/21 09:55:07;;;;;;;2.15;1.65;;;20.30;60.40;;;;;;4967682;28;20055;-27
2023/10/21 09:57:35;;;;;;;2.15;1.70;;;20.30;60.40;;;;;;4968147;28;20049;-29
2023/10/21 10:00:05;;;;;;;2.13;1.60;;;20.30;60.40;;;;;;4971294;28;20112;-28
2023/10/21 10:02:32;;;;;;;2.17;1.40;;;;;;;;;;4971304;28;20055;-27
2023/10/21 10:04:59;;;;;;;2.38;1.60;;;20.90;79.20;;;;;;4971067;28;20141;-30
2023/10/21 10:07:26;;;;;;;2.88;1.55;;;;;;;;;;4969922;28;20444;-28
2023/10/21 10:09:53;;;;;;;2.15;1.50;;;20.20;76.30;;;;;;4968753;28;20046;-29
2023/10/21 10:12:22;;;;;;;1.75;1.42;;;19.60;78.30;;;;;;4970222;28;20086;-29
2023/10/21 10:14:49;;;;;;;2.00;1.60;;;19.90;74.00;;;;;;4970420;28;20567;-29
2023/10/21 10:17:32;;;;;;;3.13;1.50;;;20.30;61.80;;;;;;4970969;28;20485;-29
2023/10/21 10:19:59;;;;;;;3.42;1.38;;;;;;;;;;4970385;28;20105;-29
2023/10/21 10:22:31;;;;;;;1.55;1.40;;;20.10;78.50;;;;;;4969969;28;20085;-29
2023/10/21 10:25:05;;;;;;;3.15;1.27;;;19.30;78.50;;;;;;4970479;28;20109;-29
2023/10/21 10:27:36;;;;;;;2.30;1.50;;;20.30;78.70;;;;;;4971223;28;20086;-29
2023/10/21 10:30:09;;;;;;;2.33;1.40;;;20.30;77.70;;;;;;4971422;28;20141;-29
2023/10/21 10:32:43;;;;;;;2.20;1.40;;;19.90;75.60;;;;;;4971737;28;20050;-29
2023/10/21 10:35:13;;;;;;;1.83;1.30;;;;;;;;;;4971913;28;20408;-29
2023/10/21 10:37:52;;;;;;;1.58;1.25;;;20.50;79.20;;;;;;4971008;28;20571;-29
2023/10/21 10:40:20;;;;;;;2.28;1.30;;;20.40;60.50;;;;;;4975587;28;20051;-28
2023/10/21 10:42:46;;;;;;;2.15;1.45;;;19.90;78.90;;;;;;4975258;28;20101;-29
2023/10/21 10:45:13;;;;;;;1.77;1.35;;;;;;;;;;4975723;28;20051;-28
2023/10/21 10:47:43;;;;;;;1.88;1.33;;;21.30;79.50;;;;;;4975250;28;20467;-30
2023/10/21 10:50:16;;;;;;;1.30;1.20;;;20.90;68.00;;;;;;4975598;28;20226;-27
2023/10/21 10:52:42;;;;;;;1.35;1.17;;;20.10;74.30;;;;;;4974813;28;20544;-27
2023/10/21 10:55:14;;;;;;;1.50;1.20;;;20.20;60.40;;;;;;4975533;28;20138;-27
2023/10/21 10:57:42;;;;;;;1.48;1.15;;;20.20;78.60;;;;;;4975075;28;20055;-27
2023/10/21 11:00:13;;;;;;;1.17;1.08;;;20.30;60.40;;;;;;4975195;28;20062;-27
2023/10/21 11:02:44;;;;;;;1.92;1.33;;;20.30;60.40;;;;;;4974930;28;20113;-28
2023/10/21 11:05:16;;;;;;;1.42;1.15;;;20.20;79.00;;;;;;4975161;28;20093;-27
2023/10/21 11:07:43;;;;;;;1.52;1.20;;;19.70;78.70;;;;;;4974810;28;20502;-27
2023/10/21 11:10:12;;;;;;;2.17;1.23;;;20.30;78.90;;;;;;4974298;28;20140;-27
2023/10/21 11:12:39;;;;;;;1.50;1.20;;;20.30;70.50;;;;;;4974570;28;20161;-26
2023/10/21 11:15:07;;;;;;;2.00;1.27;;;20.00;78.90;;;;;;4975234;28;20447;-26
2023/10/21 11:17:33;;;;;;;2.83;1.20;;;21.30;79.60;;;;;;4974710;28;20488;-26
2023/10/21 11:20:02;;;;;;;2.55;1.30;;;19.70;60.20;;;;;;4974717;28;20514;-27
2023/10/21 11:22:29;;;;;;;2.00;1.20;;;;;;;;;;4974723;28;20062;-26
2023/10/21 11:24:56;;;;;;;2.33;1.20;;;;;;;;;;4974735;28;20089;-29
2023/10/21 11:27:24;;;;;;;2.55;1.35;;;;;;;;;;4993861;28;20046;-27
2023/10/21 11:29:52;;;;;;;1.48;1.10;;;;;;;;;;4976915;28;20078;-28
2023/10/21 11:32:25;;;;;;;2.20;1.50;;;20.30;60.60;;;;;;4974596;28;20077;-30
2023/10/21 11:34:52;;;;;;;3.05;1.90;;;20.20;78.10;;;;;;4974253;28;20130;-30
2023/10/21 11:37:20;;;;;;;2.50;2.10;;;20.30;60.70;;;;;;4973500;28;20078;-28
2023/10/21 11:39:48;;;;;;;3.22;2.05;;;20.50;64.80;;;;;;4974264;28;20078;-30
2023/10/21 11:42:16;;;;;;;4.57;2.40;;;20.30;60.80;;;;;;4974035;28;20047;-30
2023/10/21 11:44:43;;;;;;;4.85;2.30;;;;;;;;;;4973204;28;20062;-29
2023/10/21 11:47:10;;;;;;;6.07;2.55;;;20.80;79.40;;;;;;4973786;28;20113;-30
2023/10/21 11:49:38;;;;;;;4.32;2.53;;;20.20;60.80;;;;;;4973008;28;20043;-28
2023/10/21 11:52:09;;;;;;;5.30;2.33;;;20.20;60.90;;;;;;4974253;28;20053;-28
2023/10/21 11:54:40;;;;;;;4.25;2.72;;;19.90;79.10;;;;;;4974004;28;20050;-30
2023/10/21 12:11:15;;;;;;;5.05;2.40;;;20.00;61.20;;;;;;4956549;28;20087;-27
2023/10/21 12:13:55;;;;;;;4.65;2.35;;;;;;;;;;4955440;28;20054;-27
2023/10/21 12:16:55;;;;;;;5.00;2.25;;;;;;;;;;4972867;28;20484;-28
2023/10/21 12:33:36;;;;;;;3.45;1.90;;;;;;;;;;4950359;28;20174;-29
2023/10/21 12:36:22;;;;;;;2.83;1.90;;;19.70;80.00;;;;;;4971816;28;20077;-29
2023/10/21 12:38:57;;;;;;;4.65;2.33;;;;;;;;;;4972486;28;20118;-28
2023/10/21 12:41:26;;;;;;;3.65;1.90;;;19.80;80.00;;;;;;4972830;28;20047;-29
2023/10/21 12:43:55;;;;;;;3.00;1.70;;;19.80;61.30;;;;;;4972603;28;20519;-28
2023/10/21 12:46:22;;;;;;;3.30;1.60;;;20.60;80.50;;;;;;4972976;28;20408;-29
2023/10/21 12:48:52;;;;;;;4.35;1.65;;;19.90;61.40;;;;;;4972412;28;20039;-28
2023/10/21 12:51:19;;;;;;;3.20;1.58;;;19.80;61.30;;;;;;4972969;28;20074;-27
2023/10/21 12:53:46;;;;;;;2.83;1.70;;;;;;;;;;4972689;28;20050;-27
2023/10/21 12:56:14;;;;;;;3.63;1.55;;;19.50;69.30;;;;;;4972427;28;20050;-27
2023/10/21 12:58:41;;;;;;;3.13;1.38;;;;;;;;;;4972346;28;20050;-27
2023/10/21 13:01:12;;;;;;;2.33;1.50;;;19.60;80.00;;;;;;4972793;28;20051;-27
2023/10/21 13:03:39;;;;;;;2.20;1.60;;;19.60;80.20;;;;;;4972722;28;20125;-26
2023/10/21 13:06:07;;;;;;;3.55;1.60;;;19.50;79.80;;;;;;4973417;28;20512;-27
2023/10/21 13:08:34;;;;;;;2.80;1.63;;;19.80;61.40;;;;;;4973199;28;20051;-28
2023/10/21 13:11:00;;;;;;;2.53;1.30;;;19.80;80.10;;;;;;4973138;28;20142;-26
2023/10/21 13:13:28;;;;;;;1.75;1.15;;;19.30;79.50;;;;;;4973340;28;20054;-26
2023/10/21 13:15:55;;;;;;;1.92;1.20;;;19.70;80.00;;;;;;4972484;28;20073;-26
2023/10/21 13:18:23;;;;;;;2.60;1.30;;;19.80;61.30;;;;;;4972915;28;20051;-27
2023/10/21 13:20:50;;;;;;;2.38;1.40;;;19.70;71.80;;;;;;4973479;28;20137;-26
2023/10/21 13:23:17;;;;;;;3.80;1.42;;;20.00;80.30;;;;;;4972098;28;20423;-26
2023/10/21 13:25:44;;;;;;;2.95;1.10;;;;;;;;;;4979584;28;20406;-27
2023/10/21 13:28:11;;;;;;;1.77;1.10;;;19.90;80.20;;;;;;4990556;28;20074;-26
2023/10/21 13:30:38;;;;;;;1.40;0.93;;;20.00;80.20;;;;;;4973811;28;20051;-26
2023/10/21 13:33:07;;;;;;;2.30;1.48;;;20.40;80.20;;;;;;4973403;28;20110;-29
2023/10/21 13:35:35;;;;;;;6.20;1.23;;;19.20;79.70;;;;;;4973150;28;20693;-29
2023/10/21 13:38:02;;;;;;;1.75;1.10;;;;;;;;;;4972652;28;20054;-27
2023/10/21 13:40:30;;;;;;;1.42;1.10;;;19.30;79.50;;;;;;4973416;28;20101;-26
2023/10/21 13:42:58;;;;;;;3.50;1.27;;;;;;;;;;4973155;28;20495;-27
2023/10/21 13:45:27;;;;;;;1.95;1.10;;;;;;;;;;4973661;28;20046;-28
2023/10/21 13:47:55;;;;;;;2.22;1.30;;;19.90;79.90;;;;;;4973109;28;20053;-26